createdAt,value
2024-02-11T00:02:26.976Z,7.40
2024-02-11T00:04:56.965Z,7.30
2024-02-11T00:07:26.956Z,7.25
2024-02-11T00:09:56.950Z,6.82
2024-02-11T00:12:26.954Z,7.35
2024-02-11T00:14:59.554Z,6.95
2024-02-11T00:17:29.567Z,7.57
2024-02-11T00:20:00.687Z,7.72
2024-02-11T00:22:30.873Z,8.57
2024-02-11T00:25:02.128Z,7.30
2024-02-11T00:27:32.149Z,7.28
2024-02-11T00:30:05.165Z,8.07
2024-02-11T00:32:35.244Z,7.72
2024-02-11T00:35:06.814Z,7.35
2024-02-11T00:37:36.883Z,8.25
2024-02-11T00:40:07.754Z,8.02
2024-02-11T00:42:37.685Z,8.02
2024-02-11T00:45:11.310Z,7.05
2024-02-11T00:47:42.112Z,7.47
2024-02-11T00:50:16.504Z,8.02
2024-02-11T00:52:49.624Z,7.73
2024-02-11T00:55:22.611Z,6.85
2024-02-11T00:57:52.883Z,7.78
2024-02-11T01:00:25.543Z,7.90
2024-02-11T01:02:55.640Z,7.53
2024-02-11T01:05:26.296Z,7.75
2024-02-11T01:07:56.405Z,7.78
2024-02-11T01:10:32.827Z,8.80
2024-02-11T01:13:03.895Z,7.50
2024-02-11T01:15:37.409Z,8.15
2024-02-11T01:18:08.369Z,9.02
2024-02-11T01:20:38.417Z,7.68
2024-02-11T01:23:08.542Z,8.00
2024-02-11T01:25:38.596Z,8.52
2024-02-11T01:28:09.182Z,8.30
2024-02-11T01:30:42.426Z,8.32
2024-02-11T01:33:13.307Z,8.40
2024-02-11T01:35:44.904Z,8.73
2024-02-11T01:38:15.218Z,8.98
2024-02-11T01:40:45.287Z,8.23
2024-02-11T01:43:15.309Z,9.43
2024-02-11T01:45:48.423Z,8.18
2024-02-11T01:48:18.778Z,8.70
2024-02-11T01:50:53.806Z,8.35
2024-02-11T01:53:24.337Z,9.10
2024-02-11T01:55:54.713Z,8.85
2024-02-11T01:58:24.875Z,8.27
2024-02-11T02:00:57.462Z,9.07
2024-02-11T02:03:29.120Z,7.85
2024-02-11T02:05:59.713Z,8.90
2024-02-11T02:08:29.762Z,8.43
2024-02-11T02:11:00.040Z,8.30
2024-02-11T02:13:30.150Z,9.73
2024-02-11T02:16:02.774Z,8.98
2024-02-11T02:18:36.189Z,9.38
2024-02-11T02:21:08.012Z,9.18
2024-02-11T02:23:40.747Z,8.48
2024-02-11T02:26:11.286Z,9.25
2024-02-11T02:28:41.344Z,8.48
2024-02-11T02:31:11.999Z,9.82
2024-02-11T02:33:46.009Z,8.07
2024-02-11T02:36:18.792Z,9.38
2024-02-11T02:38:51.463Z,8.55
2024-02-11T02:41:21.587Z,8.75
2024-02-11T02:43:51.601Z,8.40
2024-02-11T02:46:22.983Z,8.80
2024-02-11T02:48:53.624Z,9.00
2024-02-11T02:51:23.717Z,9.27
2024-02-11T02:53:56.323Z,9.32
2024-02-11T02:56:27.969Z,8.52
2024-02-11T02:58:58.097Z,8.50
2024-02-11T03:01:28.431Z,9.40
2024-02-11T03:03:58.412Z,9.23
2024-02-11T03:06:28.423Z,9.70
2024-02-11T03:09:02.475Z,8.77
2024-02-11T03:11:32.515Z,8.20
2024-02-11T03:14:02.545Z,8.88
2024-02-11T03:16:32.756Z,10.07
2024-02-11T03:19:02.880Z,8.68
2024-02-11T03:21:35.069Z,9.73
2024-02-11T03:24:08.566Z,8.57
2024-02-11T03:26:38.673Z,9.68
2024-02-11T03:29:09.596Z,9.23
2024-02-11T03:31:39.770Z,8.73
2024-02-11T03:34:09.971Z,9.52
2024-02-11T03:36:40.201Z,8.10
2024-02-11T03:39:13.891Z,8.98
2024-02-11T03:41:43.961Z,9.35
2024-02-11T03:44:16.428Z,8.93
2024-02-11T03:46:48.893Z,9.43
2024-02-11T03:51:49.956Z,8.05
2024-02-11T03:54:24.245Z,9.65
2024-02-11T03:56:54.740Z,10.70
2024-02-11T03:59:24.858Z,8.38
2024-02-11T04:01:54.992Z,9.68
2024-02-11T04:04:25.016Z,9.85
2024-02-11T04:06:55.893Z,9.60
2024-02-11T04:09:30.370Z,9.60
2024-02-11T04:12:02.434Z,9.40
2024-02-11T04:14:33.390Z,8.52
2024-02-11T04:17:04.051Z,9.27
2024-02-11T04:19:36.093Z,9.57
2024-02-11T04:22:06.240Z,9.52
2024-02-11T04:24:40.865Z,8.25
2024-02-11T04:27:15.645Z,8.75
2024-02-11T04:29:45.688Z,9.52
2024-02-11T04:32:16.403Z,7.80
2024-02-11T04:34:49.388Z,8.82
2024-02-11T04:37:19.954Z,8.48
2024-02-11T04:39:56.384Z,8.23
2024-02-11T04:42:29.275Z,8.35
2024-02-11T04:44:59.255Z,8.02
2024-02-11T04:47:29.238Z,8.05
2024-02-11T04:50:00.261Z,7.25
2024-02-11T04:52:30.895Z,7.68
2024-02-11T04:55:00.965Z,6.93
2024-02-11T04:57:40.259Z,7.18
2024-02-11T05:00:25.310Z,8.15
2024-02-11T05:02:56.595Z,8.88
2024-02-11T05:05:30.306Z,7.85
2024-02-11T05:08:02.337Z,8.20
2024-02-11T05:10:35.462Z,8.52
2024-02-11T05:13:08.535Z,9.10
2024-02-11T05:15:39.213Z,10.10
2024-02-11T05:18:10.848Z,9.60
2024-02-11T05:20:41.635Z,9.20
2024-02-11T05:23:12.480Z,9.18
2024-02-11T05:25:45.632Z,9.88
2024-02-11T05:28:21.158Z,10.10
2024-02-11T05:30:52.426Z,9.35
2024-02-11T05:33:23.649Z,10.82
2024-02-11T05:35:53.751Z,9.25
2024-02-11T05:38:26.249Z,9.98
2024-02-11T05:40:59.454Z,10.15
2024-02-11T05:43:32.491Z,10.13
2024-02-11T05:46:03.184Z,9.30
2024-02-11T05:48:33.234Z,9.02
2024-02-11T05:51:03.345Z,9.40
2024-02-11T05:53:33.418Z,9.80
2024-02-11T05:56:06.225Z,8.57
2024-02-11T05:58:39.234Z,9.75
2024-02-11T06:01:09.413Z,8.52
2024-02-11T06:03:41.652Z,8.30
2024-02-11T06:06:11.743Z,6.32
2024-02-11T06:08:42.371Z,4.93
2024-02-11T06:11:13.177Z,4.80
2024-02-11T06:13:45.902Z,4.28
2024-02-11T06:16:15.913Z,4.78
2024-02-11T06:18:45.872Z,4.05
2024-02-11T06:21:16.207Z,4.15
2024-02-11T06:23:46.296Z,4.68
2024-02-11T06:26:17.534Z,4.00
2024-02-11T06:28:50.219Z,4.30
2024-02-11T06:31:20.658Z,5.15
2024-02-11T06:33:51.440Z,5.38
2024-02-11T06:36:21.642Z,5.13
2024-02-11T06:38:51.759Z,6.15
2024-02-11T06:41:22.799Z,7.72
2024-02-11T06:44:02.583Z,7.75
2024-02-11T06:46:32.686Z,8.32
2024-02-11T06:49:03.466Z,8.65
2024-02-11T06:51:33.576Z,9.55
2024-02-11T06:54:03.661Z,7.25
2024-02-11T06:56:34.879Z,7.80
2024-02-11T06:59:07.932Z,8.40
2024-02-11T07:01:37.997Z,6.78
2024-02-11T07:04:08.623Z,6.53
2024-02-11T07:06:39.092Z,7.28
2024-02-11T07:09:13.006Z,6.50
2024-02-11T07:11:43.318Z,5.95
2024-02-11T07:14:16.870Z,6.40
2024-02-11T07:16:47.451Z,6.75
2024-02-11T07:19:17.448Z,6.75
2024-02-11T07:21:47.494Z,6.63
2024-02-11T07:24:18.070Z,5.38
2024-02-11T07:26:48.008Z,5.95
2024-02-11T07:29:21.114Z,6.03
2024-02-11T07:31:51.159Z,5.78
2024-02-11T07:34:21.683Z,5.40
2024-02-11T07:36:52.201Z,4.90
2024-02-11T07:39:22.639Z,5.50
2024-02-11T07:41:52.683Z,5.72
2024-02-11T07:44:25.392Z,4.88
2024-02-11T07:46:56.332Z,4.85
2024-02-11T07:49:26.851Z,4.55
2024-02-11T07:51:57.201Z,5.07
2024-02-11T07:54:28.287Z,4.70
2024-02-11T07:56:58.445Z,4.07
2024-02-11T07:59:31.011Z,4.30
2024-02-11T08:02:01.126Z,4.18
2024-02-11T08:04:32.146Z,4.35
2024-02-11T08:07:02.344Z,4.47
2024-02-11T08:09:32.388Z,3.75
2024-02-11T08:12:04.017Z,4.38
2024-02-11T08:14:38.695Z,4.32
2024-02-11T08:17:09.130Z,4.35
2024-02-11T08:19:39.237Z,4.13
2024-02-11T08:22:10.126Z,4.90
2024-02-11T08:24:40.220Z,5.78
2024-02-11T08:27:10.765Z,4.68
2024-02-11T08:29:43.345Z,4.20
2024-02-11T08:32:13.952Z,5.43
2024-02-11T08:34:44.077Z,5.43
2024-02-11T08:37:14.257Z,5.20
2024-02-11T08:39:44.381Z,5.80
2024-02-11T08:42:14.872Z,5.30
2024-02-11T08:44:47.631Z,6.07
2024-02-11T08:47:17.737Z,5.55
2024-02-11T08:49:51.210Z,4.72
2024-02-11T08:52:21.318Z,4.53
2024-02-11T08:54:51.359Z,5.80
2024-02-11T08:57:23.732Z,6.30
2024-02-11T09:02:30.573Z,5.80
2024-02-11T09:05:02.386Z,6.60
2024-02-11T09:07:32.560Z,7.65
2024-02-11T09:10:02.595Z,7.15
2024-02-11T09:12:32.953Z,6.72
2024-02-11T09:15:03.746Z,7.05
2024-02-11T09:17:41.768Z,6.78
2024-02-11T09:20:13.656Z,7.28
2024-02-11T09:22:44.361Z,7.53
2024-02-11T09:25:16.508Z,6.85
2024-02-11T09:27:47.336Z,7.13
2024-02-11T09:30:19.036Z,7.70
2024-02-11T09:32:52.162Z,7.20
2024-02-11T09:35:23.968Z,8.15
2024-02-11T09:40:24.933Z,7.40
2024-02-11T09:42:56.509Z,7.35
2024-02-11T09:45:29.189Z,5.87
2024-02-11T09:48:02.852Z,6.85
2024-02-11T09:50:33.704Z,6.25
2024-02-11T09:53:04.385Z,6.15
2024-02-11T09:55:34.904Z,7.10
2024-02-11T09:58:04.967Z,6.95
2024-02-11T10:00:35.098Z,7.63
2024-02-11T10:03:11.015Z,7.65
2024-02-11T10:05:43.031Z,6.20
2024-02-11T10:08:17.187Z,6.43
2024-02-11T10:10:49.294Z,5.85
2024-02-11T10:13:23.142Z,6.15
2024-02-11T10:15:54.368Z,6.50
2024-02-11T10:18:27.654Z,7.15
2024-02-11T10:20:57.967Z,6.47
2024-02-11T10:23:28.391Z,6.65
2024-02-11T10:25:59.305Z,6.93
2024-02-11T10:28:29.574Z,6.00
2024-02-11T10:31:00.307Z,6.45
2024-02-11T10:33:33.018Z,5.90
2024-02-11T10:36:04.126Z,6.72
2024-02-11T10:38:34.944Z,5.28
2024-02-11T10:41:05.149Z,6.32
2024-02-11T10:43:35.229Z,6.32
2024-02-11T10:46:05.847Z,6.82
2024-02-11T10:48:38.558Z,6.47
2024-02-11T10:51:12.811Z,6.53
2024-02-11T10:53:47.068Z,5.88
2024-02-11T10:56:18.938Z,5.10
2024-02-11T10:58:52.753Z,5.20
2024-02-11T11:01:23.575Z,5.45
2024-02-11T11:03:56.727Z,5.57
2024-02-11T11:06:28.621Z,6.32
2024-02-11T11:08:58.775Z,6.47
2024-02-11T11:11:29.209Z,6.05
2024-02-11T11:13:59.879Z,5.32
2024-02-11T11:16:35.482Z,4.95
2024-02-11T11:19:10.383Z,5.18
2024-02-11T11:21:40.467Z,5.57
2024-02-11T11:24:13.673Z,5.60
2024-02-11T11:26:52.342Z,4.78
2024-02-11T11:29:22.612Z,4.80
2024-02-11T11:31:53.500Z,4.95
2024-02-11T11:34:26.220Z,5.47
2024-02-11T11:36:56.218Z,4.88
2024-02-11T11:39:30.173Z,4.63
2024-02-11T11:42:01.441Z,5.63
2024-02-11T11:44:31.480Z,4.13
2024-02-11T11:47:01.611Z,5.40
2024-02-11T11:49:37.278Z,5.05
2024-02-11T11:52:09.745Z,4.35
2024-02-11T11:57:09.752Z,4.57
2024-02-11T11:59:39.730Z,4.45
2024-02-11T12:02:10.777Z,4.60
2024-02-11T12:04:44.957Z,4.53
2024-02-11T12:07:15.116Z,4.03
2024-02-11T12:09:45.460Z,5.00
2024-02-11T12:12:16.102Z,3.60
2024-02-11T12:14:49.436Z,4.18
2024-02-11T12:17:19.609Z,3.80
2024-02-11T12:19:52.619Z,4.57
2024-02-11T12:22:24.076Z,4.13
2024-02-11T12:24:54.073Z,4.53
2024-02-11T12:27:24.038Z,3.65
2024-02-11T12:29:58.258Z,4.32
2024-02-11T12:32:31.063Z,4.20
2024-02-11T12:35:04.196Z,3.45
2024-02-11T12:37:39.408Z,4.03
2024-02-11T12:40:10.072Z,3.78
2024-02-11T12:42:40.115Z,3.85
2024-02-11T12:45:13.269Z,3.33
2024-02-11T12:47:44.559Z,3.78
2024-02-11T12:50:20.141Z,3.40
2024-02-11T12:52:51.099Z,3.10
2024-02-11T12:55:21.179Z,3.38
2024-02-11T12:57:51.689Z,3.00
2024-02-11T13:00:23.036Z,3.75
2024-02-11T13:02:53.178Z,3.30
2024-02-11T13:05:27.921Z,3.15
2024-02-11T13:07:59.016Z,3.13
2024-02-11T13:10:29.001Z,2.92
2024-02-11T13:12:58.993Z,3.92
2024-02-11T13:15:29.115Z,3.53
2024-02-11T13:17:59.181Z,4.18
2024-02-11T13:20:32.416Z,3.55
2024-02-11T13:23:02.615Z,3.25
2024-02-11T13:25:32.588Z,3.42
2024-02-11T13:28:02.645Z,3.70
2024-02-11T13:30:32.683Z,3.60
2024-02-11T13:33:02.930Z,3.25
2024-02-11T13:35:35.685Z,3.25
2024-02-11T13:38:05.714Z,3.60
2024-02-11T13:40:35.758Z,3.03
2024-02-11T13:43:05.963Z,3.10
2024-02-11T13:45:36.050Z,3.50
2024-02-11T13:48:07.500Z,3.53
2024-02-11T13:50:40.702Z,3.83
2024-02-11T13:53:10.915Z,3.33
2024-02-11T13:55:41.036Z,2.55
2024-02-11T13:58:11.015Z,2.60
2024-02-11T14:00:41.120Z,2.70
2024-02-11T14:03:12.522Z,3.13
2024-02-11T14:05:45.393Z,2.38
2024-02-11T14:08:17.372Z,2.78
2024-02-11T14:10:47.994Z,2.67
2024-02-11T14:13:18.237Z,2.80
2024-02-11T14:15:48.234Z,2.55
2024-02-11T14:18:18.354Z,2.58
2024-02-11T14:20:53.754Z,1.92
2024-02-11T14:23:25.484Z,2.72
2024-02-11T14:25:55.897Z,2.30
2024-02-11T14:28:25.948Z,2.60
2024-02-11T14:30:58.143Z,2.58
2024-02-11T14:33:28.246Z,2.38
2024-02-11T14:36:01.097Z,2.60
2024-02-11T14:38:32.169Z,2.80
2024-02-11T14:41:02.354Z,2.08
2024-02-11T14:43:32.877Z,2.80
2024-02-11T14:46:02.884Z,2.70
2024-02-11T14:48:33.290Z,2.53
2024-02-11T14:51:05.964Z,2.72
2024-02-11T14:53:36.110Z,2.83
2024-02-11T14:56:06.756Z,2.38
2024-02-11T14:58:36.911Z,3.35
2024-02-11T15:01:08.651Z,2.80
2024-02-11T15:03:41.310Z,2.83
2024-02-11T15:06:14.519Z,2.22
2024-02-11T15:08:45.230Z,3.00
2024-02-11T15:11:19.542Z,3.30
2024-02-11T15:13:51.167Z,3.35
2024-02-11T15:16:21.743Z,2.75
2024-02-11T15:18:51.795Z,2.67
2024-02-11T15:21:26.947Z,2.47
2024-02-11T15:23:57.252Z,2.63
2024-02-11T15:26:27.312Z,2.55
2024-02-11T15:28:57.399Z,2.85
2024-02-11T15:31:27.471Z,3.15
2024-02-11T15:33:57.695Z,3.95
2024-02-11T15:36:30.400Z,3.42
2024-02-11T15:39:00.975Z,2.88
2024-02-11T15:41:31.052Z,2.75
2024-02-11T15:44:03.167Z,2.53
2024-02-11T15:49:05.415Z,3.67
2024-02-11T15:51:38.845Z,3.15
2024-02-11T15:54:09.159Z,2.40
2024-02-11T15:56:39.528Z,3.15
2024-02-11T15:59:10.807Z,2.72
2024-02-11T16:01:41.783Z,2.93
2024-02-11T16:04:12.893Z,3.00
2024-02-11T16:06:45.636Z,2.30
2024-02-11T16:09:16.563Z,2.58
2024-02-11T16:11:53.954Z,2.63
2024-02-11T16:14:24.861Z,2.40
2024-02-11T16:16:55.795Z,2.40
2024-02-11T16:19:28.969Z,2.25
2024-02-11T16:22:04.234Z,2.05
2024-02-11T16:24:34.974Z,2.53
2024-02-11T16:27:05.718Z,3.30
2024-02-11T16:29:35.818Z,2.53
2024-02-11T16:32:07.940Z,2.05
2024-02-11T16:34:39.031Z,2.40
2024-02-11T16:37:12.035Z,1.88
2024-02-11T16:39:42.090Z,2.13
2024-02-11T16:42:12.294Z,1.90
2024-02-11T16:44:42.511Z,1.60
2024-02-11T16:47:13.334Z,1.63
2024-02-11T16:49:43.773Z,1.70
2024-02-11T16:52:17.107Z,2.03
2024-02-11T16:54:47.538Z,2.15
2024-02-11T16:57:17.770Z,2.75
2024-02-11T16:59:47.998Z,2.05
2024-02-11T17:02:18.200Z,2.70
2024-02-11T17:04:50.171Z,2.10
2024-02-11T17:07:23.220Z,2.67
2024-02-11T17:09:55.308Z,2.28
2024-02-11T17:12:25.488Z,2.35
2024-02-11T17:14:55.787Z,2.10
2024-02-11T17:17:26.075Z,2.60
2024-02-11T17:19:56.583Z,2.28
2024-02-11T17:22:29.707Z,2.30
2024-02-11T17:24:59.816Z,2.17
2024-02-11T17:27:29.982Z,2.85
2024-02-11T17:30:00.068Z,2.90
2024-02-11T17:32:32.562Z,4.50
2024-02-11T17:35:08.308Z,3.30
2024-02-11T17:37:42.402Z,2.47
2024-02-11T17:40:15.064Z,2.55
2024-02-11T17:42:45.227Z,2.58
2024-02-11T17:45:16.423Z,2.58
2024-02-11T17:47:48.123Z,2.35
2024-02-11T17:50:18.404Z,1.90
2024-02-11T17:52:51.835Z,2.30
2024-02-11T17:55:22.188Z,2.70
2024-02-11T17:57:52.335Z,3.15
2024-02-11T18:00:23.220Z,4.43
2024-02-11T18:02:53.705Z,6.78
2024-02-11T18:05:24.283Z,5.80
2024-02-11T18:07:57.393Z,5.22
2024-02-11T18:10:27.641Z,4.78
2024-02-11T18:12:59.332Z,4.90
2024-02-11T18:15:30.810Z,4.57
2024-02-11T18:18:01.606Z,3.70
2024-02-11T18:20:31.774Z,3.78
2024-02-11T18:23:04.781Z,4.38
2024-02-11T18:25:48.356Z,4.03
2024-02-11T18:28:25.739Z,3.80
2024-02-11T18:30:56.009Z,5.00
2024-02-11T18:33:26.970Z,6.38
2024-02-11T18:35:57.109Z,5.60
2024-02-11T18:38:32.774Z,5.93
2024-02-11T18:41:03.520Z,5.30
2024-02-11T18:43:34.478Z,4.40
2024-02-11T18:46:04.822Z,4.65
2024-02-11T18:48:35.375Z,4.65
2024-02-11T18:51:07.139Z,4.13
2024-02-11T18:53:39.893Z,4.43
2024-02-11T18:56:10.729Z,4.63
2024-02-11T18:58:41.995Z,5.10
2024-02-11T19:01:12.478Z,5.13
2024-02-11T19:03:42.743Z,4.85
2024-02-11T19:06:13.139Z,5.70
2024-02-11T19:08:46.105Z,6.13
2024-02-11T19:11:16.265Z,5.03
2024-02-11T19:13:46.573Z,5.90
2024-02-11T19:16:16.909Z,4.45
2024-02-11T19:18:47.177Z,4.18
2024-02-11T19:21:17.415Z,5.10
2024-02-11T19:23:50.111Z,3.88
2024-02-11T19:26:21.287Z,3.85
2024-02-11T19:28:51.916Z,3.90
2024-02-11T19:31:23.442Z,3.78
2024-02-11T19:33:54.017Z,4.50
2024-02-11T19:36:24.631Z,4.93
2024-02-11T19:38:57.450Z,3.95
2024-02-11T19:41:28.492Z,3.58
2024-02-11T19:43:59.081Z,4.97
2024-02-11T19:46:29.191Z,4.18
2024-02-11T19:48:59.646Z,4.25
2024-02-11T19:51:31.440Z,3.65
2024-02-11T19:54:04.504Z,4.15
2024-02-11T19:56:34.863Z,3.35
2024-02-11T19:59:07.449Z,3.00
2024-02-11T20:01:37.972Z,3.35
2024-02-11T20:04:08.119Z,4.53
2024-02-11T20:06:38.454Z,3.92
2024-02-11T20:09:13.720Z,4.25
2024-02-11T20:11:47.511Z,3.75
2024-02-11T20:14:17.648Z,4.40
2024-02-11T20:16:48.814Z,4.20
2024-02-11T20:19:19.183Z,4.13
2024-02-11T20:21:51.438Z,4.28
2024-02-11T20:24:24.273Z,4.13
2024-02-11T20:26:54.466Z,4.82
2024-02-11T20:29:25.833Z,4.10
2024-02-11T20:31:58.224Z,4.50
2024-02-11T20:34:29.549Z,3.35
2024-02-11T20:37:00.145Z,4.20
2024-02-11T20:39:32.847Z,3.92
2024-02-11T20:42:03.363Z,4.47
2024-02-11T20:44:33.547Z,3.35
2024-02-11T20:47:04.720Z,3.42
2024-02-11T20:49:34.936Z,4.32
2024-02-11T20:52:05.287Z,4.15
2024-02-11T20:54:38.092Z,4.10
2024-02-11T20:57:09.274Z,4.00
2024-02-11T20:59:39.528Z,3.50
2024-02-11T21:02:11.313Z,3.17
2024-02-11T21:04:42.187Z,2.83
2024-02-11T21:07:13.528Z,3.22
2024-02-11T21:09:46.484Z,2.85
2024-02-11T21:12:16.742Z,3.00
2024-02-11T21:14:48.815Z,3.20
2024-02-11T21:17:19.237Z,3.15
2024-02-11T21:19:50.657Z,3.60
2024-02-11T21:22:21.632Z,4.05
2024-02-11T21:24:54.444Z,3.67
2024-02-11T21:27:24.948Z,3.85
2024-02-11T21:29:55.321Z,3.20
2024-02-11T21:32:25.702Z,3.15
2024-02-11T21:34:56.155Z,3.65
2024-02-11T21:37:28.562Z,3.50
2024-02-11T21:40:01.768Z,3.70
2024-02-11T21:42:32.133Z,3.33
2024-02-11T21:45:02.535Z,3.35
2024-02-11T21:47:35.433Z,3.10
2024-02-11T21:50:09.112Z,3.58
2024-02-11T21:52:39.369Z,4.20
2024-02-11T21:55:14.580Z,3.45
2024-02-11T21:57:45.369Z,3.72
2024-02-11T22:00:17.007Z,3.65
2024-02-11T22:02:47.841Z,4.93
2024-02-11T22:05:20.699Z,4.47
2024-02-11T22:07:51.158Z,5.10
2024-02-11T22:10:24.107Z,5.45
2024-02-11T22:12:56.856Z,4.82
2024-02-11T22:15:27.409Z,5.20
2024-02-11T22:17:58.567Z,5.90
2024-02-11T22:20:29.512Z,7.22
2024-02-11T22:23:01.291Z,6.28
2024-02-11T22:25:34.362Z,5.55
2024-02-11T22:28:05.506Z,5.50
2024-02-11T22:30:35.857Z,5.47
2024-02-11T22:33:07.083Z,6.30
2024-02-11T22:35:37.506Z,5.00
2024-02-11T22:38:07.879Z,5.22
2024-02-11T22:40:40.984Z,5.47
2024-02-11T22:43:11.270Z,5.05
2024-02-11T22:45:41.558Z,3.92
2024-02-11T22:48:12.503Z,4.45
2024-02-11T22:50:42.807Z,4.13
2024-02-11T22:53:13.028Z,4.70
2024-02-11T22:55:46.302Z,4.85
2024-02-11T22:58:16.307Z,3.95
2024-02-11T23:00:46.553Z,3.67
2024-02-11T23:03:19.687Z,4.28
2024-02-11T23:05:50.725Z,4.68
2024-02-11T23:08:21.729Z,5.28
2024-02-11T23:10:54.446Z,4.25
2024-02-11T23:13:25.517Z,5.55
2024-02-11T23:15:56.267Z,5.72
2024-02-11T23:18:26.315Z,4.93
2024-02-11T23:21:02.658Z,6.03
2024-02-11T23:23:32.784Z,6.38
2024-02-11T23:26:05.597Z,6.60
2024-02-11T23:28:35.610Z,7.50
2024-02-11T23:31:05.608Z,7.18
2024-02-11T23:33:37.033Z,6.47
2024-02-11T23:36:08.681Z,6.47
2024-02-11T23:38:38.759Z,7.30
2024-02-11T23:41:11.454Z,7.57
2024-02-11T23:43:41.693Z,6.97
2024-02-11T23:46:11.913Z,7.50
2024-02-11T23:48:46.377Z,7.75
2024-02-11T23:51:18.657Z,7.80
2024-02-11T23:53:51.002Z,7.20
2024-02-11T23:56:23.914Z,8.00
2024-02-11T23:58:56.707Z,7.22
